Terminal Aerodrome Forecast
Issued by NWS

Home | Current Version | Previous Version | Text Only | Print | Product List | Glossary Off
Versions: 1 2 3 4 5 6 7 8 9 10 11 12 13

196
FTUS45 KGGW 082320
TAFSDY
TAF
KSDY 082320Z 0900/0924 29005KT P6SM BKN060
     FM091200 31006KT P6SM VCSH OVC025
     FM092100 32005KT P6SM VCSH OVC015
      AMD LTD TO CLD VIS AND WIND=

USA.gov is the U.S. government's official web portal to all federal, state and local government web resources and services.